sensor_id;sensor_type;location;lat;lon;timestamp;pressure;altitude;pressure_sealevel;temperature;humidity
58739;BME280;44512;53.046;18.604;2022-11-24T00:04:10;101106.91;;;2.65;67.60
58739;BME280;44512;53.046;18.604;2022-11-24T00:14:38;101095.78;;;2.59;67.56
58739;BME280;44512;53.046;18.604;2022-11-24T00:25:07;101111.82;;;2.59;67.68
58739;BME280;44512;53.046;18.604;2022-11-24T00:35:35;101114.07;;;2.54;67.77
58739;BME280;44512;53.046;18.604;2022-11-24T00:46:04;101092.37;;;2.48;67.91
58739;BME280;44512;53.046;18.604;2022-11-24T00:56:32;101099.02;;;2.53;67.96
58739;BME280;44512;53.046;18.604;2022-11-24T01:07:00;101111.67;;;2.61;67.75
58739;BME280;44512;53.046;18.604;2022-11-24T01:17:29;101132.21;;;2.60;67.65
58739;BME280;44512;53.046;18.604;2022-11-24T01:27:57;101115.88;;;2.64;67.49
58739;BME280;44512;53.046;18.604;2022-11-24T01:38:26;101112.81;;;2.58;67.53
58739;BME280;44512;53.046;18.604;2022-11-24T01:49:10;101121.52;;;2.60;67.42
58739;BME280;44512;53.046;18.604;2022-11-24T02:09:54;101111.65;;;2.51;67.40
58739;BME280;44512;53.046;18.604;2022-11-24T02:20:20;101115.03;;;2.44;67.52
58739;BME280;44512;53.046;18.604;2022-11-24T02:30:49;101120.91;;;2.38;67.56
58739;BME280;44512;53.046;18.604;2022-11-24T02:41:19;101109.12;;;2.40;67.62
58739;BME280;44512;53.046;18.604;2022-11-24T02:51:45;101104.20;;;2.45;67.61
58739;BME280;44512;53.046;18.604;2022-11-24T03:02:13;101114.05;;;2.45;67.59
58739;BME280;44512;53.046;18.604;2022-11-24T03:12:42;101116.43;;;2.38;67.40
58739;BME280;44512;53.046;18.604;2022-11-24T03:23:10;101113.62;;;2.40;67.29
58739;BME280;44512;53.046;18.604;2022-11-24T03:33:39;101115.88;;;2.44;67.21
58739;BME280;44512;53.046;18.604;2022-11-24T03:44:07;101098.59;;;2.48;67.12
58739;BME280;44512;53.046;18.604;2022-11-24T03:54:36;101112.65;;;2.50;67.13
58739;BME280;44512;53.046;18.604;2022-11-24T04:05:05;101124.03;;;2.52;67.10
58739;BME280;44512;53.046;18.604;2022-11-24T04:15:33;101122.34;;;2.51;67.11
58739;BME280;44512;53.046;18.604;2022-11-24T04:26:01;101136.69;;;2.50;67.19
58739;BME280;44512;53.046;18.604;2022-11-24T04:36:30;101146.69;;;2.48;67.15
58739;BME280;44512;53.046;18.604;2022-11-24T04:46:58;101161.56;;;2.41;67.28
58739;BME280;44512;53.046;18.604;2022-11-24T04:57:27;101173.49;;;2.37;67.33
58739;BME280;44512;53.046;18.604;2022-11-24T05:07:57;101191.24;;;2.38;67.37
58739;BME280;44512;53.046;18.604;2022-11-24T05:18:23;101192.78;;;2.41;67.38
58739;BME280;44512;53.046;18.604;2022-11-24T05:28:52;101203.87;;;2.36;67.51
58739;BME280;44512;53.046;18.604;2022-11-24T05:39:20;101218.80;;;2.39;67.61
58739;BME280;44512;53.046;18.604;2022-11-24T05:49:49;101229.20;;;2.42;67.68
58739;BME280;44512;53.046;18.604;2022-11-24T06:00:18;101230.33;;;2.39;67.76
58739;BME280;44512;53.046;18.604;2022-11-24T06:10:46;101243.54;;;2.41;67.68
58739;BME280;44512;53.046;18.604;2022-11-24T06:31:42;101242.45;;;2.43;67.33
58739;BME280;44512;53.046;18.604;2022-11-24T06:42:11;101245.12;;;2.43;67.30
58739;BME280;44512;53.046;18.604;2022-11-24T06:52:39;101245.37;;;2.40;67.46
58739;BME280;44512;53.046;18.604;2022-11-24T07:03:14;101261.54;;;2.39;67.49
58739;BME280;44512;53.046;18.604;2022-11-24T07:13:37;101263.09;;;2.41;67.38
58739;BME280;44512;53.046;18.604;2022-11-24T07:24:05;101269.16;;;2.43;67.28
58739;BME280;44512;53.046;18.604;2022-11-24T07:34:33;101295.88;;;2.43;67.15
58739;BME280;44512;53.046;18.604;2022-11-24T07:45:02;101281.65;;;2.43;67.11
58739;BME280;44512;53.046;18.604;2022-11-24T07:55:30;101292.23;;;2.44;67.27
58739;BME280;44512;53.046;18.604;2022-11-24T08:05:59;101289.80;;;2.41;67.35
58739;BME280;44512;53.046;18.604;2022-11-24T08:16:27;101295.15;;;2.41;67.45
58739;BME280;44512;53.046;18.604;2022-11-24T08:26:56;101300.09;;;2.46;67.62
58739;BME280;44512;53.046;18.604;2022-11-24T08:37:24;101309.69;;;2.48;67.55
58739;BME280;44512;53.046;18.604;2022-11-24T08:47:53;101312.22;;;2.50;67.56
58739;BME280;44512;53.046;18.604;2022-11-24T08:58:21;101316.42;;;2.52;67.54
58739;BME280;44512;53.046;18.604;2022-11-24T09:08:53;101320.63;;;2.45;67.70
58739;BME280;44512;53.046;18.604;2022-11-24T09:19:18;101306.29;;;2.46;67.63
58739;BME280;44512;53.046;18.604;2022-11-24T09:29:47;101317.42;;;2.51;67.58
58739;BME280;44512;53.046;18.604;2022-11-24T09:40:15;101321.52;;;2.55;67.48
58739;BME280;44512;53.046;18.604;2022-11-24T09:50:47;101319.55;;;2.57;67.44
58739;BME280;44512;53.046;18.604;2022-11-24T10:01:17;101330.23;;;2.57;67.43
58739;BME280;44512;53.046;18.604;2022-11-24T10:22:22;101330.83;;;2.61;67.35
58739;BME280;44512;53.046;18.604;2022-11-24T10:32:44;101326.33;;;2.61;67.33
58739;BME280;44512;53.046;18.604;2022-11-24T10:43:09;101310.03;;;2.65;67.29
58739;BME280;44512;53.046;18.604;2022-11-24T10:53:34;101309.05;;;2.66;67.13
58739;BME280;44512;53.046;18.604;2022-11-24T11:04:11;101313.15;;;2.70;66.95
58739;BME280;44512;53.046;18.604;2022-11-24T11:14:33;101331.72;;;2.71;66.83
58739;BME280;44512;53.046;18.604;2022-11-24T11:35:31;101351.97;;;2.74;66.91
58739;BME280;44512;53.046;18.604;2022-11-24T11:46:03;101359.03;;;2.75;66.90
58739;BME280;44512;53.046;18.604;2022-11-24T12:07:00;101330.68;;;2.63;67.03
58739;BME280;44512;53.046;18.604;2022-11-24T12:38:34;101362.95;;;2.71;67.14
58739;BME280;44512;53.046;18.604;2022-11-24T13:30:53;101361.31;;;2.79;66.63
58739;BME280;44512;53.046;18.604;2022-11-24T13:51:38;101383.26;;;2.83;66.64
58739;BME280;44512;53.046;18.604;2022-11-24T14:02:21;101379.87;;;2.81;66.46
58739;BME280;44512;53.046;18.604;2022-11-24T14:12:35;101387.17;;;2.79;66.47
58739;BME280;44512;53.046;18.604;2022-11-24T14:23:08;101399.58;;;2.80;66.49
58739;BME280;44512;53.046;18.604;2022-11-24T14:33:32;101406.62;;;2.81;66.49
58739;BME280;44512;53.046;18.604;2022-11-24T14:44:09;101414.63;;;2.81;66.47
58739;BME280;44512;53.046;18.604;2022-11-24T14:54:29;101429.10;;;2.78;66.46
58739;BME280;44512;53.046;18.604;2022-11-24T15:04:57;101433.60;;;2.78;66.53
58739;BME280;44512;53.046;18.604;2022-11-24T15:15:35;101440.08;;;2.75;66.65
58739;BME280;44512;53.046;18.604;2022-11-24T15:36:23;101451.87;;;2.73;66.91
58739;BME280;44512;53.046;18.604;2022-11-24T15:46:51;101445.82;;;2.71;66.89
58739;BME280;44512;53.046;18.604;2022-11-24T15:57:20;101464.53;;;2.71;66.95
58739;BME280;44512;53.046;18.604;2022-11-24T16:07:48;101461.12;;;2.69;66.94
58739;BME280;44512;53.046;18.604;2022-11-24T16:18:16;101475.48;;;2.68;67.06
58739;BME280;44512;53.046;18.604;2022-11-24T16:28:45;101468.20;;;2.70;67.02
58739;BME280;44512;53.046;18.604;2022-11-24T16:39:14;101490.42;;;2.70;67.05
58739;BME280;44512;53.046;18.604;2022-11-24T16:54:45;101495.16;;;2.67;67.28
58739;BME280;44512;53.046;18.604;2022-11-24T17:05:12;101496.86;;;2.68;67.40
58739;BME280;44512;53.046;18.604;2022-11-24T17:15:41;101487.02;;;2.68;67.49
58739;BME280;44512;53.046;18.604;2022-11-24T17:26:14;101496.86;;;2.68;67.58
58739;BME280;44512;53.046;18.604;2022-11-24T17:36:38;101519.23;;;2.67;67.67
58739;BME280;44512;53.046;18.604;2022-11-24T17:47:06;101525.28;;;2.69;67.71
58739;BME280;44512;53.046;18.604;2022-11-24T17:57:35;101535.98;;;2.69;67.67
58739;BME280;44512;53.046;18.604;2022-11-24T18:08:03;101548.38;;;2.70;67.75
58739;BME280;44512;53.046;18.604;2022-11-24T18:18:32;101552.89;;;2.69;67.78
58739;BME280;44512;53.046;18.604;2022-11-24T18:29:00;101559.92;;;2.70;67.76
58739;BME280;44512;53.046;18.604;2022-11-24T18:39:29;101560.77;;;2.71;67.76
58739;BME280;44512;53.046;18.604;2022-11-24T18:49:57;101573.15;;;2.72;67.80
58739;BME280;44512;53.046;18.604;2022-11-24T19:00:26;101566.12;;;2.71;67.94
58739;BME280;44512;53.046;18.604;2022-11-24T19:10:54;101569.63;;;2.71;68.10
58739;BME280;44512;53.046;18.604;2022-11-24T19:21:22;101570.34;;;2.73;68.12
58739;BME280;44512;53.046;18.604;2022-11-24T19:31:52;101583.60;;;2.75;68.11
58739;BME280;44512;53.046;18.604;2022-11-24T19:42:19;101581.88;;;2.74;68.12
58739;BME280;44512;53.046;18.604;2022-11-24T19:52:48;101583.00;;;2.71;68.03
58739;BME280;44512;53.046;18.604;2022-11-24T20:03:16;101608.04;;;2.70;67.85
58739;BME280;44512;53.046;18.604;2022-11-24T20:13:46;101614.23;;;2.71;68.14
58739;BME280;44512;53.046;18.604;2022-11-24T20:24:19;101625.63;;;2.73;68.24
58739;BME280;44512;53.046;18.604;2022-11-24T20:34:41;101631.96;;;2.72;68.36
58739;BME280;44512;53.046;18.604;2022-11-24T20:45:10;101633.66;;;2.73;68.46
58739;BME280;44512;53.046;18.604;2022-11-24T20:55:38;101621.13;;;2.73;68.51
58739;BME280;44512;53.046;18.604;2022-11-24T21:06:08;101616.77;;;2.72;68.52
58739;BME280;44512;53.046;18.604;2022-11-24T21:16:37;101608.89;;;2.71;68.65
58739;BME280;44512;53.046;18.604;2022-11-24T21:27:04;101612.55;;;2.70;68.77
58739;BME280;44512;53.046;18.604;2022-11-24T21:37:32;101637.31;;;2.72;68.87
58739;BME280;44512;53.046;18.604;2022-11-24T21:48:01;101657.85;;;2.71;68.99
58739;BME280;44512;53.046;18.604;2022-11-24T21:58:30;101672.06;;;2.72;69.07
58739;BME280;44512;53.046;18.604;2022-11-24T22:08:57;101653.59;;;2.69;69.20
58739;BME280;44512;53.046;18.604;2022-11-24T22:19:26;101663.33;;;2.70;69.28
58739;BME280;44512;53.046;18.604;2022-11-24T22:29:54;101663.20;;;2.71;69.35
58739;BME280;44512;53.046;18.604;2022-11-24T22:40:23;101670.24;;;2.72;69.34
58739;BME280;44512;53.046;18.604;2022-11-24T22:50:51;101675.58;;;2.72;69.32
58739;BME280;44512;53.046;18.604;2022-11-24T23:01:22;101676.44;;;2.73;69.28
58739;BME280;44512;53.046;18.604;2022-11-24T23:11:48;101689.80;;;2.73;69.28
58739;BME280;44512;53.046;18.604;2022-11-24T23:22:17;101687.13;;;2.73;69.27
58739;BME280;44512;53.046;18.604;2022-11-24T23:32:45;101678.12;;;2.74;69.23
58739;BME280;44512;53.046;18.604;2022-11-24T23:43:14;101678.12;;;2.74;69.10
58739;BME280;44512;53.046;18.604;2022-11-24T23:53:43;101679.09;;;2.73;69.02
